Interior, SD

5:08 AM MST on December 06, 2016 (GMT -0700)
Cactus Flat, South Dakota | | Change Station

Elev 2523 ft 43.84 °N, 101.90 °W | Updated 2 seconds ago

Overcast
Overcast
12.8 °F
Feels Like -9 °F
N
33.0
Wind Variable Wind from ESE

Today
High -- | Low -- °F
--% Chance of Precip.
Yesterday
High -- | Low -- °F
Precip. -- in
Pressure 30.09 in
Visibility 10.0 miles
Clouds Few 2200 ft
Overcast 3000 ft
Windchill -9 °F
Dew Point 4 °F
Humidity 68%
Rainfall 0.00 in
Snow Depth Not available.
7:07 AM 4:10 PM
Waxing Crescent, 41% visible
METAR KPHP 061155Z AUTO 29018G28KT 10SM FEW022 OVC030 M11/M16 A2999 RMK AO2 PK WND 30032/1113 SLP187 T11111161 11089 21117 53015
Pressure 30.09 in
Visibility 10.0 miles
Clouds Few 2200 ft
Overcast 3000 ft
Windchill -9 °F
Dew Point 4 °F
Humidity 68%
Rainfall 0.00 in
Snow Depth Not available.
7:07 AM 4:10 PM
Waxing Crescent, 41% visible
METAR KPHP 061155Z AUTO 29018G28KT 10SM FEW022 OVC030 M11/M16 A2999 RMK AO2 PK WND 30032/1113 SLP187 T11111161 11089 21117 53015

10-Day Weather Forecast

Almanac

Astronomy

Dec. 06, 2016 Rise Set
Actual Time
Civil Twilight
Nautical Twilight
Astronomical Twilight
Moon
Length of Visible Light
Length of Day
Tomorrow will be .
, % of the Moon is Illuminated

Today's Extremes

State Highs State Lows

Community

WunderPhotos

Upload Photos

1,955,936 photos uploaded!

WunderBlog® & News

Nearby

Air Quality

  Air Quality AQ Index Pollutant
Not available.

Snow Depth

Station Depth Elevation

Earthquake Activity

City Distance Mag. Time & Date
Minimum magnitude displayed is 2.5.

Coastal Water Temperatures

Place Temperature

Stations

Nearby Weather Stations

Station Location Temp. Windchill Dew Point Humidity Wind Precip. Elev Updated Type
                   

Watches & Warnings

There are currently no watches in effect.